sensor_id;sensor_type;location;lat;lon;timestamp;P1;durP1;ratioP1;P2;durP2;ratioP2
74469;SDS011;62918;55.706;37.816;2022-10-20T00:00:29;2.33;;;1.40;;
74469;SDS011;62918;55.706;37.816;2022-10-20T00:00:59;3.25;;;0.98;;
74469;SDS011;62918;55.706;37.816;2022-10-20T00:01:31;2.00;;;0.80;;
74469;SDS011;62918;55.706;37.816;2022-10-20T00:02:01;1.98;;;1.02;;
74469;SDS011;62918;55.706;37.816;2022-10-20T00:02:32;2.25;;;1.05;;
74469;SDS011;62918;55.706;37.816;2022-10-20T00:03:02;2.60;;;1.15;;
74469;SDS011;62918;55.706;37.816;2022-10-20T00:03:33;2.22;;;0.93;;
74469;SDS011;62918;55.706;37.816;2022-10-20T00:04:04;4.07;;;1.33;;
74469;SDS011;62918;55.706;37.816;2022-10-20T00:04:34;4.78;;;1.20;;
74469;SDS011;62918;55.706;37.816;2022-10-20T00:05:05;2.95;;;1.42;;
74469;SDS011;62918;55.706;37.816;2022-10-20T00:05:36;3.00;;;1.20;;
74469;SDS011;62918;55.706;37.816;2022-10-20T00:06:16;2.67;;;1.45;;
74469;SDS011;62918;55.706;37.816;2022-10-20T00:06:52;2.88;;;1.40;;
74469;SDS011;62918;55.706;37.816;2022-10-20T00:07:22;3.47;;;1.58;;
74469;SDS011;62918;55.706;37.816;2022-10-20T00:07:53;3.42;;;1.65;;
74469;SDS011;62918;55.706;37.816;2022-10-20T00:08:23;2.92;;;1.67;;
74469;SDS011;62918;55.706;37.816;2022-10-20T00:08:54;2.80;;;1.23;;
74469;SDS011;62918;55.706;37.816;2022-10-20T00:09:26;3.80;;;1.65;;
74469;SDS011;62918;55.706;37.816;2022-10-20T00:09:57;2.60;;;1.40;;
74469;SDS011;62918;55.706;37.816;2022-10-20T00:10:27;3.47;;;1.40;;
74469;SDS011;62918;55.706;37.816;2022-10-20T00:10:58;2.67;;;1.60;;
74469;SDS011;62918;55.706;37.816;2022-10-20T00:11:29;3.47;;;1.42;;
74469;SDS011;62918;55.706;37.816;2022-10-20T00:12:00;4.53;;;1.70;;
74469;SDS011;62918;55.706;37.816;2022-10-20T00:12:30;3.47;;;1.60;;
74469;SDS011;62918;55.706;37.816;2022-10-20T00:13:01;3.80;;;1.52;;
74469;SDS011;62918;55.706;37.816;2022-10-20T00:13:32;2.83;;;1.63;;
74469;SDS011;62918;55.706;37.816;2022-10-20T00:14:04;3.60;;;1.65;;
74469;SDS011;62918;55.706;37.816;2022-10-20T00:14:35;5.38;;;1.45;;
74469;SDS011;62918;55.706;37.816;2022-10-20T00:15:05;4.07;;;1.55;;
74469;SDS011;62918;55.706;37.816;2022-10-20T00:15:36;3.03;;;1.52;;
74469;SDS011;62918;55.706;37.816;2022-10-20T00:16:07;3.00;;;1.67;;
74469;SDS011;62918;55.706;37.816;2022-10-20T00:16:38;4.05;;;1.60;;
74469;SDS011;62918;55.706;37.816;2022-10-20T00:17:09;3.65;;;1.60;;
74469;SDS011;62918;55.706;37.816;2022-10-20T00:17:40;3.95;;;1.50;;
74469;SDS011;62918;55.706;37.816;2022-10-20T00:18:10;2.75;;;1.50;;
74469;SDS011;62918;55.706;37.816;2022-10-20T00:18:41;3.97;;;1.60;;
74469;SDS011;62918;55.706;37.816;2022-10-20T00:19:12;3.00;;;1.77;;
74469;SDS011;62918;55.706;37.816;2022-10-20T00:19:42;2.80;;;1.50;;
74469;SDS011;62918;55.706;37.816;2022-10-20T00:20:16;3.00;;;1.83;;
74469;SDS011;62918;55.706;37.816;2022-10-20T00:20:47;2.78;;;1.40;;
74469;SDS011;62918;55.706;37.816;2022-10-20T00:21:19;2.60;;;1.70;;
74469;SDS011;62918;55.706;37.816;2022-10-20T00:21:51;3.22;;;1.52;;
74469;SDS011;62918;55.706;37.816;2022-10-20T00:22:22;3.17;;;1.70;;
74469;SDS011;62918;55.706;37.816;2022-10-20T00:22:52;3.60;;;1.58;;
74469;SDS011;62918;55.706;37.816;2022-10-20T00:23:23;2.05;;;1.00;;
74469;SDS011;62918;55.706;37.816;2022-10-20T00:23:54;3.20;;;1.55;;
74469;SDS011;62918;55.706;37.816;2022-10-20T00:24:25;3.63;;;2.10;;
74469;SDS011;62918;55.706;37.816;2022-10-20T00:24:55;2.95;;;1.45;;
74469;SDS011;62918;55.706;37.816;2022-10-20T00:25:26;3.78;;;1.60;;
74469;SDS011;62918;55.706;37.816;2022-10-20T00:26:00;2.92;;;1.55;;
74469;SDS011;62918;55.706;37.816;2022-10-20T00:26:35;3.88;;;1.50;;
74469;SDS011;62918;55.706;37.816;2022-10-20T00:27:05;2.90;;;1.67;;
74469;SDS011;62918;55.706;37.816;2022-10-20T00:27:36;4.70;;;1.58;;
74469;SDS011;62918;55.706;37.816;2022-10-20T00:28:06;3.70;;;1.48;;
74469;SDS011;62918;55.706;37.816;2022-10-20T00:28:37;2.55;;;1.50;;
74469;SDS011;62918;55.706;37.816;2022-10-20T00:29:08;3.13;;;1.30;;
74469;SDS011;62918;55.706;37.816;2022-10-20T00:29:38;2.50;;;1.63;;
74469;SDS011;62918;55.706;37.816;2022-10-20T00:30:09;4.63;;;1.50;;
74469;SDS011;62918;55.706;37.816;2022-10-20T00:30:40;4.10;;;1.58;;
74469;SDS011;62918;55.706;37.816;2022-10-20T00:31:10;2.50;;;1.70;;
74469;SDS011;62918;55.706;37.816;2022-10-20T00:31:42;4.18;;;1.48;;
74469;SDS011;62918;55.706;37.816;2022-10-20T00:32:13;3.97;;;1.58;;
74469;SDS011;62918;55.706;37.816;2022-10-20T00:32:45;3.60;;;1.40;;
74469;SDS011;62918;55.706;37.816;2022-10-20T00:33:16;3.38;;;1.30;;
74469;SDS011;62918;55.706;37.816;2022-10-20T00:33:47;3.30;;;1.90;;
74469;SDS011;62918;55.706;37.816;2022-10-20T00:34:17;2.33;;;1.42;;
74469;SDS011;62918;55.706;37.816;2022-10-20T00:34:48;3.85;;;1.77;;
74469;SDS011;62918;55.706;37.816;2022-10-20T00:35:18;3.63;;;1.60;;
74469;SDS011;62918;55.706;37.816;2022-10-20T00:35:49;2.67;;;1.55;;
74469;SDS011;62918;55.706;37.816;2022-10-20T00:36:20;3.00;;;1.88;;
74469;SDS011;62918;55.706;37.816;2022-10-20T00:36:52;2.30;;;1.58;;
74469;SDS011;62918;55.706;37.816;2022-10-20T00:37:22;2.85;;;1.83;;
74469;SDS011;62918;55.706;37.816;2022-10-20T00:37:53;2.95;;;1.73;;
74469;SDS011;62918;55.706;37.816;2022-10-20T00:38:23;3.53;;;1.77;;
74469;SDS011;62918;55.706;37.816;2022-10-20T00:39:02;4.25;;;2.00;;
74469;SDS011;62918;55.706;37.816;2022-10-20T00:39:33;3.85;;;1.60;;
74469;SDS011;62918;55.706;37.816;2022-10-20T00:40:04;2.85;;;1.73;;
74469;SDS011;62918;55.706;37.816;2022-10-20T00:40:35;3.78;;;1.65;;
74469;SDS011;62918;55.706;37.816;2022-10-20T00:41:06;2.67;;;1.50;;
74469;SDS011;62918;55.706;37.816;2022-10-20T00:41:37;3.85;;;1.67;;
74469;SDS011;62918;55.706;37.816;2022-10-20T00:42:10;2.95;;;1.40;;
74469;SDS011;62918;55.706;37.816;2022-10-20T00:42:46;2.72;;;1.50;;
74469;SDS011;62918;55.706;37.816;2022-10-20T00:43:17;2.95;;;1.42;;
74469;SDS011;62918;55.706;37.816;2022-10-20T00:43:52;3.10;;;1.45;;
74469;SDS011;62918;55.706;37.816;2022-10-20T00:44:46;2.88;;;1.58;;
74469;SDS011;62918;55.706;37.816;2022-10-20T00:45:17;3.42;;;1.40;;
74469;SDS011;62918;55.706;37.816;2022-10-20T00:45:53;3.45;;;1.73;;
74469;SDS011;62918;55.706;37.816;2022-10-20T00:46:35;3.22;;;1.48;;
74469;SDS011;62918;55.706;37.816;2022-10-20T00:47:10;3.95;;;1.60;;
74469;SDS011;62918;55.706;37.816;2022-10-20T00:48:24;3.30;;;1.55;;
74469;SDS011;62918;55.706;37.816;2022-10-20T00:49:00;3.13;;;1.60;;
74469;SDS011;62918;55.706;37.816;2022-10-20T00:49:35;3.97;;;1.67;;
74469;SDS011;62918;55.706;37.816;2022-10-20T00:50:07;5.90;;;2.15;;
74469;SDS011;62918;55.706;37.816;2022-10-20T00:50:45;2.92;;;1.60;;
74469;SDS011;62918;55.706;37.816;2022-10-20T00:51:21;4.63;;;1.60;;
74469;SDS011;62918;55.706;37.816;2022-10-20T00:51:55;3.33;;;1.88;;
74469;SDS011;62918;55.706;37.816;2022-10-20T00:52:26;3.50;;;1.90;;
74469;SDS011;62918;55.706;37.816;2022-10-20T00:52:56;2.60;;;1.70;;
74469;SDS011;62918;55.706;37.816;2022-10-20T00:53:28;3.50;;;2.00;;
74469;SDS011;62918;55.706;37.816;2022-10-20T00:54:04;4.10;;;2.15;;
74469;SDS011;62918;55.706;37.816;2022-10-20T00:54:38;3.80;;;1.75;;
74469;SDS011;62918;55.706;37.816;2022-10-20T00:55:09;3.25;;;2.20;;
74469;SDS011;62918;55.706;37.816;2022-10-20T00:55:45;6.05;;;2.05;;
74469;SDS011;62918;55.706;37.816;2022-10-20T00:56:18;3.53;;;2.40;;
74469;SDS011;62918;55.706;37.816;2022-10-20T00:56:49;3.60;;;2.13;;
74469;SDS011;62918;55.706;37.816;2022-10-20T00:57:20;5.90;;;2.58;;
74469;SDS011;62918;55.706;37.816;2022-10-20T00:57:52;4.38;;;2.55;;
74469;SDS011;62918;55.706;37.816;2022-10-20T00:58:25;4.63;;;2.63;;
74469;SDS011;62918;55.706;37.816;2022-10-20T00:58:56;3.85;;;2.50;;
74469;SDS011;62918;55.706;37.816;2022-10-20T00:59:29;4.25;;;2.30;;
74469;SDS011;62918;55.706;37.816;2022-10-20T01:00:03;4.45;;;2.50;;
74469;SDS011;62918;55.706;37.816;2022-10-20T01:00:36;4.28;;;2.58;;
74469;SDS011;62918;55.706;37.816;2022-10-20T01:01:08;4.43;;;2.50;;
74469;SDS011;62918;55.706;37.816;2022-10-20T01:01:40;4.95;;;2.80;;
74469;SDS011;62918;55.706;37.816;2022-10-20T01:02:12;8.70;;;3.45;;
74469;SDS011;62918;55.706;37.816;2022-10-20T01:02:43;5.65;;;3.80;;
74469;SDS011;62918;55.706;37.816;2022-10-20T01:03:19;5.45;;;3.10;;
74469;SDS011;62918;55.706;37.816;2022-10-20T01:04:14;5.78;;;3.08;;
74469;SDS011;62918;55.706;37.816;2022-10-20T01:04:46;6.80;;;3.80;;
74469;SDS011;62918;55.706;37.816;2022-10-20T01:05:17;6.35;;;3.45;;
74469;SDS011;62918;55.706;37.816;2022-10-20T01:05:48;5.07;;;2.85;;
74469;SDS011;62918;55.706;37.816;2022-10-20T01:06:19;5.40;;;3.33;;
74469;SDS011;62918;55.706;37.816;2022-10-20T01:06:51;3.67;;;2.28;;
74469;SDS011;62918;55.706;37.816;2022-10-20T01:07:22;5.78;;;2.90;;
74469;SDS011;62918;55.706;37.816;2022-10-20T01:07:52;5.97;;;2.97;;
74469;SDS011;62918;55.706;37.816;2022-10-20T01:08:23;4.72;;;2.53;;
74469;SDS011;62918;55.706;37.816;2022-10-20T01:08:54;4.28;;;2.83;;
74469;SDS011;62918;55.706;37.816;2022-10-20T01:09:24;4.57;;;2.13;;
74469;SDS011;62918;55.706;37.816;2022-10-20T01:09:55;4.32;;;2.22;;
74469;SDS011;62918;55.706;37.816;2022-10-20T01:10:26;4.45;;;2.63;;
74469;SDS011;62918;55.706;37.816;2022-10-20T01:12:05;3.33;;;1.90;;
74469;SDS011;62918;55.706;37.816;2022-10-20T01:13:37;4.38;;;1.90;;
74469;SDS011;62918;55.706;37.816;2022-10-20T01:14:20;3.38;;;1.60;;
74469;SDS011;62918;55.706;37.816;2022-10-20T01:15:27;2.67;;;1.25;;
74469;SDS011;62918;55.706;37.816;2022-10-20T01:16:20;3.72;;;1.77;;
74469;SDS011;62918;55.706;37.816;2022-10-20T01:22:25;2.35;;;1.23;;
74469;SDS011;62918;55.706;37.816;2022-10-20T01:25:05;4.43;;;1.30;;
74469;SDS011;62918;55.706;37.816;2022-10-20T01:27:36;3.58;;;1.48;;
74469;SDS011;62918;55.706;37.816;2022-10-20T01:29:08;3.45;;;1.52;;
74469;SDS011;62918;55.706;37.816;2022-10-20T01:30:34;2.75;;;1.20;;
74469;SDS011;62918;55.706;37.816;2022-10-20T01:31:22;2.72;;;1.13;;
74469;SDS011;62918;55.706;37.816;2022-10-20T01:32:07;2.83;;;1.15;;
74469;SDS011;62918;55.706;37.816;2022-10-20T01:32:51;2.50;;;1.17;;
74469;SDS011;62918;55.706;37.816;2022-10-20T01:34:05;2.53;;;1.08;;
74469;SDS011;62918;55.706;37.816;2022-10-20T01:36:12;3.25;;;1.00;;
74469;SDS011;62918;55.706;37.816;2022-10-20T01:36:54;1.95;;;0.75;;
74469;SDS011;62918;55.706;37.816;2022-10-20T01:39:15;2.90;;;1.08;;
74469;SDS011;62918;55.706;37.816;2022-10-20T01:40:37;2.92;;;0.85;;
74469;SDS011;62918;55.706;37.816;2022-10-20T01:40:52;2.65;;;0.82;;
74469;SDS011;62918;55.706;37.816;2022-10-20T01:41:53;2.00;;;0.82;;
74469;SDS011;62918;55.706;37.816;2022-10-20T01:42:29;2.05;;;0.75;;
74469;SDS011;62918;55.706;37.816;2022-10-20T01:43:00;4.50;;;0.77;;
74469;SDS011;62918;55.706;37.816;2022-10-20T01:43:36;3.28;;;1.05;;
74469;SDS011;62918;55.706;37.816;2022-10-20T01:44:10;3.30;;;1.40;;
74469;SDS011;62918;55.706;37.816;2022-10-20T01:44:44;2.35;;;0.50;;
74469;SDS011;62918;55.706;37.816;2022-10-20T01:45:48;2.88;;;0.95;;
74469;SDS011;62918;55.706;37.816;2022-10-20T01:46:21;1.50;;;0.80;;
74469;SDS011;62918;55.706;37.816;2022-10-20T01:46:54;2.35;;;0.70;;
74469;SDS011;62918;55.706;37.816;2022-10-20T01:47:27;2.13;;;0.93;;
74469;SDS011;62918;55.706;37.816;2022-10-20T01:48:01;2.03;;;0.70;;
74469;SDS011;62918;55.706;37.816;2022-10-20T01:48:34;1.73;;;0.70;;
74469;SDS011;62918;55.706;37.816;2022-10-20T01:49:07;1.80;;;0.75;;
74469;SDS011;62918;55.706;37.816;2022-10-20T01:49:40;2.85;;;0.70;;
74469;SDS011;62918;55.706;37.816;2022-10-20T01:50:12;3.10;;;0.90;;
74469;SDS011;62918;55.706;37.816;2022-10-20T01:51:15;5.28;;;0.68;;
74469;SDS011;62918;55.706;37.816;2022-10-20T01:51:46;1.83;;;0.73;;
74469;SDS011;62918;55.706;37.816;2022-10-20T01:52:17;2.40;;;0.65;;
74469;SDS011;62918;55.706;37.816;2022-10-20T01:52:48;1.85;;;0.82;;
74469;SDS011;62918;55.706;37.816;2022-10-20T01:53:19;4.72;;;0.43;;
74469;SDS011;62918;55.706;37.816;2022-10-20T01:53:49;1.80;;;0.80;;
74469;SDS011;62918;55.706;37.816;2022-10-20T01:54:21;2.17;;;0.80;;
74469;SDS011;62918;55.706;37.816;2022-10-20T01:54:56;1.42;;;0.52;;
74469;SDS011;62918;55.706;37.816;2022-10-20T01:55:27;1.52;;;0.57;;
74469;SDS011;62918;55.706;37.816;2022-10-20T01:55:58;4.60;;;0.60;;
74469;SDS011;62918;55.706;37.816;2022-10-20T01:59:09;1.60;;;0.57;;
74469;SDS011;62918;55.706;37.816;2022-10-20T02:00:08;2.08;;;1.00;;
74469;SDS011;62918;55.706;37.816;2022-10-20T02:00:43;3.00;;;1.00;;
74469;SDS011;62918;55.706;37.816;2022-10-20T02:02:26;1.88;;;0.70;;
74469;SDS011;62918;55.706;37.816;2022-10-20T02:03:50;1.98;;;0.70;;
74469;SDS011;62918;55.706;37.816;2022-10-20T02:04:45;2.17;;;0.60;;
74469;SDS011;62918;55.706;37.816;2022-10-20T02:07:23;2.63;;;1.20;;
74469;SDS011;62918;55.706;37.816;2022-10-20T02:07:59;2.83;;;0.70;;
74469;SDS011;62918;55.706;37.816;2022-10-20T02:09:01;1.80;;;0.73;;
74469;SDS011;62918;55.706;37.816;2022-10-20T02:09:42;2.38;;;0.90;;
74469;SDS011;62918;55.706;37.816;2022-10-20T02:10:18;4.32;;;0.93;;
74469;SDS011;62918;55.706;37.816;2022-10-20T02:10:54;2.08;;;0.73;;
74469;SDS011;62918;55.706;37.816;2022-10-20T02:11:34;2.53;;;1.00;;
74469;SDS011;62918;55.706;37.816;2022-10-20T02:12:21;2.22;;;0.75;;
74469;SDS011;62918;55.706;37.816;2022-10-20T02:13:00;1.60;;;0.50;;
74469;SDS011;62918;55.706;37.816;2022-10-20T02:13:35;1.83;;;0.60;;
74469;SDS011;62918;55.706;37.816;2022-10-20T02:14:08;3.13;;;0.95;;
74469;SDS011;62918;55.706;37.816;2022-10-20T02:14:42;2.28;;;0.88;;
74469;SDS011;62918;55.706;37.816;2022-10-20T02:15:16;5.03;;;1.10;;
74469;SDS011;62918;55.706;37.816;2022-10-20T02:15:55;1.45;;;0.68;;
74469;SDS011;62918;55.706;37.816;2022-10-20T02:16:33;2.92;;;1.08;;
74469;SDS011;62918;55.706;37.816;2022-10-20T02:17:41;3.58;;;0.82;;
74469;SDS011;62918;55.706;37.816;2022-10-20T02:18:17;2.38;;;0.80;;
74469;SDS011;62918;55.706;37.816;2022-10-20T02:18:53;2.10;;;0.90;;
74469;SDS011;62918;55.706;37.816;2022-10-20T02:19:25;3.03;;;0.77;;
74469;SDS011;62918;55.706;37.816;2022-10-20T02:20:00;2.13;;;0.80;;
74469;SDS011;62918;55.706;37.816;2022-10-20T02:20:34;2.83;;;0.80;;
74469;SDS011;62918;55.706;37.816;2022-10-20T02:21:06;2.42;;;1.05;;
74469;SDS011;62918;55.706;37.816;2022-10-20T02:21:37;2.33;;;0.95;;
74469;SDS011;62918;55.706;37.816;2022-10-20T02:22:08;2.65;;;0.85;;
74469;SDS011;62918;55.706;37.816;2022-10-20T02:22:41;2.63;;;1.00;;
74469;SDS011;62918;55.706;37.816;2022-10-20T02:23:12;1.88;;;0.95;;
74469;SDS011;62918;55.706;37.816;2022-10-20T02:23:43;3.28;;;0.90;;
74469;SDS011;62918;55.706;37.816;2022-10-20T02:24:16;1.85;;;0.93;;
74469;SDS011;62918;55.706;37.816;2022-10-20T02:24:50;2.13;;;1.20;;
74469;SDS011;62918;55.706;37.816;2022-10-20T02:25:21;3.67;;;1.10;;
74469;SDS011;62918;55.706;37.816;2022-10-20T02:26:24;1.92;;;0.98;;
74469;SDS011;62918;55.706;37.816;2022-10-20T02:26:56;3.97;;;1.30;;
74469;SDS011;62918;55.706;37.816;2022-10-20T02:27:31;3.10;;;1.40;;
74469;SDS011;62918;55.706;37.816;2022-10-20T02:28:06;2.90;;;1.35;;
74469;SDS011;62918;55.706;37.816;2022-10-20T02:28:41;2.92;;;1.20;;
74469;SDS011;62918;55.706;37.816;2022-10-20T02:29:23;2.45;;;1.23;;
74469;SDS011;62918;55.706;37.816;2022-10-20T02:30:09;2.55;;;1.23;;
74469;SDS011;62918;55.706;37.816;2022-10-20T02:30:43;3.03;;;1.30;;
74469;SDS011;62918;55.706;37.816;2022-10-20T02:31:15;2.67;;;1.10;;
74469;SDS011;62918;55.706;37.816;2022-10-20T02:31:46;3.08;;;1.10;;
74469;SDS011;62918;55.706;37.816;2022-10-20T02:32:17;2.90;;;1.00;;
74469;SDS011;62918;55.706;37.816;2022-10-20T02:32:49;2.05;;;1.02;;
74469;SDS011;62918;55.706;37.816;2022-10-20T02:33:21;2.33;;;1.38;;
74469;SDS011;62918;55.706;37.816;2022-10-20T02:33:52;3.05;;;2.03;;
74469;SDS011;62918;55.706;37.816;2022-10-20T02:34:25;3.45;;;2.40;;
74469;SDS011;62918;55.706;37.816;2022-10-20T02:34:56;4.72;;;2.65;;
74469;SDS011;62918;55.706;37.816;2022-10-20T02:35:29;2.40;;;1.20;;
74469;SDS011;62918;55.706;37.816;2022-10-20T02:36:02;2.60;;;1.38;;
74469;SDS011;62918;55.706;37.816;2022-10-20T02:36:36;4.10;;;1.55;;
74469;SDS011;62918;55.706;37.816;2022-10-20T02:37:08;3.53;;;1.40;;
74469;SDS011;62918;55.706;37.816;2022-10-20T02:37:39;2.92;;;1.40;;
74469;SDS011;62918;55.706;37.816;2022-10-20T02:38:10;4.05;;;1.30;;
74469;SDS011;62918;55.706;37.816;2022-10-20T02:38:40;4.05;;;3.15;;
74469;SDS011;62918;55.706;37.816;2022-10-20T02:39:11;4.10;;;2.58;;
74469;SDS011;62918;55.706;37.816;2022-10-20T02:39:42;4.53;;;2.63;;
74469;SDS011;62918;55.706;37.816;2022-10-20T02:40:12;3.17;;;1.48;;
74469;SDS011;62918;55.706;37.816;2022-10-20T02:40:43;3.65;;;1.40;;
74469;SDS011;62918;55.706;37.816;2022-10-20T02:41:14;2.33;;;1.08;;
74469;SDS011;62918;55.706;37.816;2022-10-20T02:41:44;2.65;;;1.50;;
74469;SDS011;62918;55.706;37.816;2022-10-20T02:42:15;2.95;;;1.20;;
74469;SDS011;62918;55.706;37.816;2022-10-20T02:42:48;2.83;;;1.27;;
74469;SDS011;62918;55.706;37.816;2022-10-20T02:43:19;2.63;;;1.10;;
74469;SDS011;62918;55.706;37.816;2022-10-20T02:43:49;2.45;;;1.08;;
74469;SDS011;62918;55.706;37.816;2022-10-20T02:44:20;1.83;;;0.90;;
74469;SDS011;62918;55.706;37.816;2022-10-20T02:44:51;2.40;;;1.33;;
74469;SDS011;62918;55.706;37.816;2022-10-20T02:45:22;1.98;;;1.17;;
74469;SDS011;62918;55.706;37.816;2022-10-20T02:45:53;2.53;;;1.13;;
74469;SDS011;62918;55.706;37.816;2022-10-20T02:46:23;2.42;;;1.10;;
74469;SDS011;62918;55.706;37.816;2022-10-20T02:46:54;2.65;;;1.20;;
74469;SDS011;62918;55.706;37.816;2022-10-20T02:47:24;3.78;;;1.35;;
74469;SDS011;62918;55.706;37.816;2022-10-20T02:47:55;2.60;;;1.45;;
74469;SDS011;62918;55.706;37.816;2022-10-20T02:48:25;2.53;;;1.27;;
74469;SDS011;62918;55.706;37.816;2022-10-20T02:48:56;3.42;;;1.30;;
74469;SDS011;62918;55.706;37.816;2022-10-20T02:49:26;2.55;;;1.20;;
74469;SDS011;62918;55.706;37.816;2022-10-20T02:49:57;2.40;;;1.05;;
74469;SDS011;62918;55.706;37.816;2022-10-20T02:50:28;2.55;;;1.23;;
74469;SDS011;62918;55.706;37.816;2022-10-20T02:50:58;4.55;;;1.50;;
74469;SDS011;62918;55.706;37.816;2022-10-20T02:51:29;4.20;;;1.35;;
74469;SDS011;62918;55.706;37.816;2022-10-20T02:51:59;2.92;;;1.23;;
74469;SDS011;62918;55.706;37.816;2022-10-20T02:52:30;5.22;;;1.65;;
74469;SDS011;62918;55.706;37.816;2022-10-20T02:53:01;3.13;;;1.27;;
74469;SDS011;62918;55.706;37.816;2022-10-20T02:53:33;2.75;;;1.70;;
74469;SDS011;62918;55.706;37.816;2022-10-20T02:54:03;3.75;;;1.42;;
74469;SDS011;62918;55.706;37.816;2022-10-20T02:54:34;2.33;;;1.25;;
74469;SDS011;62918;55.706;37.816;2022-10-20T02:55:05;5.38;;;1.50;;
74469;SDS011;62918;55.706;37.816;2022-10-20T02:55:35;3.03;;;1.38;;
74469;SDS011;62918;55.706;37.816;2022-10-20T02:56:06;5.10;;;1.40;;
74469;SDS011;62918;55.706;37.816;2022-10-20T02:56:36;2.03;;;1.20;;
74469;SDS011;62918;55.706;37.816;2022-10-20T02:57:07;3.42;;;1.10;;
74469;SDS011;62918;55.706;37.816;2022-10-20T02:57:38;3.40;;;1.50;;
74469;SDS011;62918;55.706;37.816;2022-10-20T02:58:08;3.03;;;1.60;;
74469;SDS011;62918;55.706;37.816;2022-10-20T02:58:39;2.92;;;1.42;;
74469;SDS011;62918;55.706;37.816;2022-10-20T02:59:15;3.88;;;1.65;;
74469;SDS011;62918;55.706;37.816;2022-10-20T02:59:46;3.90;;;1.73;;
74469;SDS011;62918;55.706;37.816;2022-10-20T03:00:17;2.85;;;1.40;;
74469;SDS011;62918;55.706;37.816;2022-10-20T03:00:48;3.30;;;1.50;;
74469;SDS011;62918;55.706;37.816;2022-10-20T03:01:19;3.55;;;1.40;;
74469;SDS011;62918;55.706;37.816;2022-10-20T03:01:51;2.03;;;1.27;;
74469;SDS011;62918;55.706;37.816;2022-10-20T03:02:22;2.80;;;1.30;;
74469;SDS011;62918;55.706;37.816;2022-10-20T03:02:52;3.33;;;1.50;;
74469;SDS011;62918;55.706;37.816;2022-10-20T03:03:23;4.13;;;1.90;;
74469;SDS011;62918;55.706;37.816;2022-10-20T03:03:53;4.00;;;1.33;;
74469;SDS011;62918;55.706;37.816;2022-10-20T03:04:28;2.92;;;1.48;;
74469;SDS011;62918;55.706;37.816;2022-10-20T03:04:59;2.75;;;1.40;;
74469;SDS011;62918;55.706;37.816;2022-10-20T03:05:30;3.17;;;1.50;;
74469;SDS011;62918;55.706;37.816;2022-10-20T03:06:13;3.55;;;1.70;;
74469;SDS011;62918;55.706;37.816;2022-10-20T03:06:45;2.40;;;1.50;;
74469;SDS011;62918;55.706;37.816;2022-10-20T03:07:15;4.00;;;1.88;;
74469;SDS011;62918;55.706;37.816;2022-10-20T03:07:46;4.03;;;1.90;;
74469;SDS011;62918;55.706;37.816;2022-10-20T03:08:17;4.07;;;1.90;;
74469;SDS011;62918;55.706;37.816;2022-10-20T03:08:47;3.08;;;1.63;;
74469;SDS011;62918;55.706;37.816;2022-10-20T03:09:18;4.25;;;1.90;;
74469;SDS011;62918;55.706;37.816;2022-10-20T03:09:48;3.03;;;1.73;;
74469;SDS011;62918;55.706;37.816;2022-10-20T03:10:19;4.00;;;1.95;;
74469;SDS011;62918;55.706;37.816;2022-10-20T03:10:50;3.20;;;1.95;;
74469;SDS011;62918;55.706;37.816;2022-10-20T03:11:20;4.78;;;2.30;;
74469;SDS011;62918;55.706;37.816;2022-10-20T03:11:51;4.45;;;2.00;;
74469;SDS011;62918;55.706;37.816;2022-10-20T03:12:22;4.18;;;2.00;;
74469;SDS011;62918;55.706;37.816;2022-10-20T03:12:52;5.93;;;2.20;;
74469;SDS011;62918;55.706;37.816;2022-10-20T03:13:23;4.65;;;2.33;;
74469;SDS011;62918;55.706;37.816;2022-10-20T03:13:53;3.63;;;2.10;;
74469;SDS011;62918;55.706;37.816;2022-10-20T03:14:24;4.00;;;1.92;;
74469;SDS011;62918;55.706;37.816;2022-10-20T03:14:54;4.88;;;1.90;;
74469;SDS011;62918;55.706;37.816;2022-10-20T03:15:25;2.78;;;1.73;;
74469;SDS011;62918;55.706;37.816;2022-10-20T03:15:55;4.50;;;1.90;;
74469;SDS011;62918;55.706;37.816;2022-10-20T03:16:26;4.68;;;2.28;;
74469;SDS011;62918;55.706;37.816;2022-10-20T03:16:56;3.42;;;2.03;;
74469;SDS011;62918;55.706;37.816;2022-10-20T03:17:27;4.07;;;2.30;;
74469;SDS011;62918;55.706;37.816;2022-10-20T03:17:57;4.72;;;2.08;;
74469;SDS011;62918;55.706;37.816;2022-10-20T03:18:28;3.92;;;2.20;;
74469;SDS011;62918;55.706;37.816;2022-10-20T03:18:58;3.45;;;2.10;;
74469;SDS011;62918;55.706;37.816;2022-10-20T03:19:29;3.85;;;1.85;;
74469;SDS011;62918;55.706;37.816;2022-10-20T03:19:59;3.90;;;2.00;;
74469;SDS011;62918;55.706;37.816;2022-10-20T03:20:31;3.58;;;2.05;;
74469;SDS011;62918;55.706;37.816;2022-10-20T03:21:02;3.03;;;1.90;;
74469;SDS011;62918;55.706;37.816;2022-10-20T03:21:32;4.18;;;1.92;;
74469;SDS011;62918;55.706;37.816;2022-10-20T03:22:03;3.10;;;2.15;;
74469;SDS011;62918;55.706;37.816;2022-10-20T03:22:34;3.58;;;2.28;;
74469;SDS011;62918;55.706;37.816;2022-10-20T03:23:04;5.18;;;2.15;;
74469;SDS011;62918;55.706;37.816;2022-10-20T03:23:35;3.13;;;1.80;;
74469;SDS011;62918;55.706;37.816;2022-10-20T03:24:05;5.13;;;2.10;;
74469;SDS011;62918;55.706;37.816;2022-10-20T03:24:36;4.00;;;2.22;;
74469;SDS011;62918;55.706;37.816;2022-10-20T03:25:06;4.60;;;2.28;;
74469;SDS011;62918;55.706;37.816;2022-10-20T03:25:37;4.90;;;2.72;;
74469;SDS011;62918;55.706;37.816;2022-10-20T03:26:09;4.93;;;2.00;;
74469;SDS011;62918;55.706;37.816;2022-10-20T03:26:40;3.33;;;2.30;;
74469;SDS011;62918;55.706;37.816;2022-10-20T03:27:11;5.90;;;2.20;;
74469;SDS011;62918;55.706;37.816;2022-10-20T03:27:41;3.22;;;1.92;;
74469;SDS011;62918;55.706;37.816;2022-10-20T03:28:12;3.95;;;2.28;;
74469;SDS011;62918;55.706;37.816;2022-10-20T03:28:42;3.55;;;1.92;;
74469;SDS011;62918;55.706;37.816;2022-10-20T03:29:13;4.25;;;2.67;;
74469;SDS011;62918;55.706;37.816;2022-10-20T03:29:43;3.92;;;2.25;;
74469;SDS011;62918;55.706;37.816;2022-10-20T03:30:14;4.20;;;2.28;;
74469;SDS011;62918;55.706;37.816;2022-10-20T03:30:45;4.43;;;2.50;;
74469;SDS011;62918;55.706;37.816;2022-10-20T03:31:16;4.25;;;2.20;;
74469;SDS011;62918;55.706;37.816;2022-10-20T03:31:46;5.70;;;2.60;;
74469;SDS011;62918;55.706;37.816;2022-10-20T03:32:17;5.25;;;2.55;;
74469;SDS011;62918;55.706;37.816;2022-10-20T03:32:47;5.72;;;2.75;;
74469;SDS011;62918;55.706;37.816;2022-10-20T03:33:18;4.57;;;2.63;;
74469;SDS011;62918;55.706;37.816;2022-10-20T03:33:48;3.88;;;2.75;;
74469;SDS011;62918;55.706;37.816;2022-10-20T03:34:19;4.32;;;2.95;;
74469;SDS011;62918;55.706;37.816;2022-10-20T03:34:50;5.45;;;3.00;;
74469;SDS011;62918;55.706;37.816;2022-10-20T03:35:20;5.03;;;2.95;;
74469;SDS011;62918;55.706;37.816;2022-10-20T03:35:51;4.93;;;3.03;;
74469;SDS011;62918;55.706;37.816;2022-10-20T03:36:21;5.43;;;3.28;;
74469;SDS011;62918;55.706;37.816;2022-10-20T03:36:52;4.05;;;2.90;;
74469;SDS011;62918;55.706;37.816;2022-10-20T03:37:22;4.80;;;3.55;;
74469;SDS011;62918;55.706;37.816;2022-10-20T03:37:53;6.47;;;3.28;;
74469;SDS011;62918;55.706;37.816;2022-10-20T03:38:24;4.95;;;3.08;;
74469;SDS011;62918;55.706;37.816;2022-10-20T03:38:54;4.85;;;3.47;;
74469;SDS011;62918;55.706;37.816;2022-10-20T03:39:25;4.57;;;3.22;;
74469;SDS011;62918;55.706;37.816;2022-10-20T03:39:55;5.00;;;3.60;;
74469;SDS011;62918;55.706;37.816;2022-10-20T03:40:26;5.60;;;3.60;;
74469;SDS011;62918;55.706;37.816;2022-10-20T03:40:56;5.05;;;3.40;;
74469;SDS011;62918;55.706;37.816;2022-10-20T03:41:27;4.57;;;3.33;;
74469;SDS011;62918;55.706;37.816;2022-10-20T03:41:57;6.25;;;3.50;;